Terminal Aerodrome Forecast
Issued by NWS

Home | Current Version | Previous Version | Text Only | Print | Product List | Glossary On
Versions: 1 2 3 4 5 6 7 8 9 10 11 12 13
000
FTUS43 KDMX 192331
TAFOTM
TAF
KOTM 192331Z 2000/2024 18014KT P6SM SCT250
     FM200600 19011KT P6SM SCT080 BKN100
     FM202000 20011KT P6SM VCSH SCT080 BKN100=

USA.gov is the U.S. government's official web portal to all federal, state and local government web resources and services.